メインページ
METAR-TAF:

METAR-TAF

空港 :

Newberry, ミシガン州, アメリカ合衆国

緯度: 46-18-40N, 経度: 085-27-26W, 海抜: 265m

現時点の気象観測

当レポートは12分前の20:15(UTC)に作成
の風 8kt
気温 1°C
湿度 69%
気圧 1021 hPa
視程: 11.3km
高度3100ftの千切れ雲あり

METAR: KERY 072015Z AUTO 18008KT 7SM BKN031 01/M04 A3015 RMK AO2 T00081045

時間: 15:27 (20:27 UTC)


TAF: 見つかりません

4,000以上の空港の気象観測と天気予報(METAR報とTAF報)

利用可能な観測所は地図上に黄色い丸と赤い丸で示す。

丸の上にカーソルを重ねると観測所名を参照できる。

次にクリックすると気象観測と天気予報を参照できる。

マップの切り替え:黒色「×」印の緑ボタンをクリックして拡大、「-」印の緑ボタンをクリックして縮小、緑色の三角印をクリックして隣りの地図に切り替え


METAR-TAF: